North Tonawanda, New York
Current Conditions -  °F | °C
As of 6:59 AM on Thursday 18 Dec 2014 (Local Time) from KIAG Reporting Station
Overcast Overcast  
Wind Chill: 19°   Ceiling: 1900
Heat Index: 30°   Visibility: 10mi
Dew Point: 26°   Wind: 15mph
Humidity: 85%   Direction: 270°W
Pressure: 30.07"   Gusts: NA
Location:  43.03°N, 78.87°W
Report Text: KIAG 181159Z 27013KT 10SM SCT013 BKN019 OVC038 M01/M03 A3007 RMK AO2 T10111033
Loading
Personal Weather Stations






























Interactive Weather Map New forecast layout! Learn more

10-Day Weather Forecast

Advertisements
Track Severe Weather on mobile